sensor_id;sensor_type;location;lat;lon;timestamp;P1;durP1;ratioP1;P2;durP2;ratioP2
38865;SDS011;62686;48.984;8.394;2024-02-16T00:18:00;13.20;;;4.90;;
38865;SDS011;62686;48.984;8.394;2024-02-16T00:20:30;10.77;;;5.60;;
38865;SDS011;62686;48.984;8.394;2024-02-16T00:22:58;8.60;;;5.00;;
38865;SDS011;62686;48.984;8.394;2024-02-16T00:25:26;10.20;;;5.20;;
38865;SDS011;62686;48.984;8.394;2024-02-16T00:27:55;7.57;;;4.70;;
38865;SDS011;62686;48.984;8.394;2024-02-16T00:30:23;8.00;;;4.50;;
38865;SDS011;62686;48.984;8.394;2024-02-16T00:32:53;8.20;;;5.10;;
38865;SDS011;62686;48.984;8.394;2024-02-16T00:35:23;7.07;;;5.00;;
38865;SDS011;62686;48.984;8.394;2024-02-16T00:37:52;8.23;;;5.00;;
38865;SDS011;62686;48.984;8.394;2024-02-16T00:40:20;7.07;;;4.75;;
38865;SDS011;62686;48.984;8.394;2024-02-16T00:42:49;8.48;;;4.95;;
38865;SDS011;62686;48.984;8.394;2024-02-16T00:45:18;6.45;;;4.43;;
38865;SDS011;62686;48.984;8.394;2024-02-16T00:47:49;8.80;;;5.07;;
38865;SDS011;62686;48.984;8.394;2024-02-16T00:50:18;6.50;;;4.80;;
38865;SDS011;62686;48.984;8.394;2024-02-16T00:52:50;7.93;;;5.00;;
38865;SDS011;62686;48.984;8.394;2024-02-16T00:55:18;9.52;;;5.00;;
38865;SDS011;62686;48.984;8.394;2024-02-16T00:57:50;10.95;;;4.95;;
38865;SDS011;62686;48.984;8.394;2024-02-16T01:00:19;8.75;;;4.75;;
38865;SDS011;62686;48.984;8.394;2024-02-16T01:02:51;8.63;;;4.77;;
38865;SDS011;62686;48.984;8.394;2024-02-16T01:05:19;8.30;;;4.68;;
38865;SDS011;62686;48.984;8.394;2024-02-16T01:07:50;6.30;;;4.18;;
38865;SDS011;62686;48.984;8.394;2024-02-16T01:10:19;7.43;;;4.13;;
38865;SDS011;62686;48.984;8.394;2024-02-16T01:12:48;7.55;;;4.40;;
38865;SDS011;62686;48.984;8.394;2024-02-16T01:15:18;6.73;;;4.37;;
38865;SDS011;62686;48.984;8.394;2024-02-16T01:17:46;6.28;;;4.43;;
38865;SDS011;62686;48.984;8.394;2024-02-16T01:20:15;8.13;;;4.55;;
38865;SDS011;62686;48.984;8.394;2024-02-16T01:22:43;5.85;;;4.10;;
38865;SDS011;62686;48.984;8.394;2024-02-16T01:25:13;7.25;;;4.72;;
38865;SDS011;62686;48.984;8.394;2024-02-16T01:27:42;9.33;;;4.97;;
38865;SDS011;62686;48.984;8.394;2024-02-16T01:30:10;9.07;;;4.53;;
38865;SDS011;62686;48.984;8.394;2024-02-16T01:32:40;7.53;;;4.72;;
38865;SDS011;62686;48.984;8.394;2024-02-16T01:35:09;9.85;;;5.03;;
38865;SDS011;62686;48.984;8.394;2024-02-16T01:37:37;7.95;;;5.10;;
38865;SDS011;62686;48.984;8.394;2024-02-16T01:40:07;8.77;;;5.07;;
38865;SDS011;62686;48.984;8.394;2024-02-16T01:42:41;7.22;;;4.65;;
38865;SDS011;62686;48.984;8.394;2024-02-16T01:45:10;9.45;;;4.78;;
38865;SDS011;62686;48.984;8.394;2024-02-16T01:47:40;10.90;;;4.65;;
38865;SDS011;62686;48.984;8.394;2024-02-16T01:50:13;9.50;;;5.28;;
38865;SDS011;62686;48.984;8.394;2024-02-16T01:52:42;9.60;;;4.83;;
38865;SDS011;62686;48.984;8.394;2024-02-16T01:55:12;10.57;;;5.30;;
38865;SDS011;62686;48.984;8.394;2024-02-16T01:57:44;8.00;;;4.78;;
38865;SDS011;62686;48.984;8.394;2024-02-16T02:00:14;9.43;;;4.63;;
38865;SDS011;62686;48.984;8.394;2024-02-16T02:02:44;8.07;;;5.30;;
38865;SDS011;62686;48.984;8.394;2024-02-16T02:05:14;8.13;;;4.90;;
38865;SDS011;62686;48.984;8.394;2024-02-16T02:07:42;8.82;;;4.85;;
38865;SDS011;62686;48.984;8.394;2024-02-16T02:10:11;6.97;;;4.30;;
38865;SDS011;62686;48.984;8.394;2024-02-16T02:12:39;8.30;;;4.40;;
38865;SDS011;62686;48.984;8.394;2024-02-16T02:15:14;9.95;;;4.70;;
38865;SDS011;62686;48.984;8.394;2024-02-16T02:17:43;10.97;;;4.13;;
38865;SDS011;62686;48.984;8.394;2024-02-16T02:20:14;8.30;;;4.15;;
38865;SDS011;62686;48.984;8.394;2024-02-16T02:22:44;6.07;;;4.22;;
38865;SDS011;62686;48.984;8.394;2024-02-16T02:25:13;6.07;;;3.65;;
38865;SDS011;62686;48.984;8.394;2024-02-16T02:27:41;7.00;;;3.90;;
38865;SDS011;62686;48.984;8.394;2024-02-16T02:30:10;6.23;;;3.80;;
38865;SDS011;62686;48.984;8.394;2024-02-16T02:32:39;8.00;;;4.10;;
38865;SDS011;62686;48.984;8.394;2024-02-16T02:35:09;5.78;;;3.85;;
38865;SDS011;62686;48.984;8.394;2024-02-16T02:37:38;8.93;;;4.38;;
38865;SDS011;62686;48.984;8.394;2024-02-16T02:40:08;6.28;;;3.60;;
38865;SDS011;62686;48.984;8.394;2024-02-16T02:42:38;4.83;;;3.13;;
38865;SDS011;62686;48.984;8.394;2024-02-16T02:45:07;6.07;;;4.00;;
38865;SDS011;62686;48.984;8.394;2024-02-16T03:01:07;8.27;;;4.20;;
38865;SDS011;62686;48.984;8.394;2024-02-16T03:03:36;10.20;;;4.30;;
38865;SDS011;62686;48.984;8.394;2024-02-16T03:06:04;5.55;;;4.20;;
38865;SDS011;62686;48.984;8.394;2024-02-16T03:08:34;6.77;;;3.83;;
38865;SDS011;62686;48.984;8.394;2024-02-16T03:11:03;7.28;;;4.20;;
38865;SDS011;62686;48.984;8.394;2024-02-16T03:13:32;7.60;;;3.97;;
38865;SDS011;62686;48.984;8.394;2024-02-16T03:16:00;8.75;;;4.30;;
38865;SDS011;62686;48.984;8.394;2024-02-16T03:18:33;6.80;;;4.07;;
38865;SDS011;62686;48.984;8.394;2024-02-16T03:21:02;9.07;;;4.00;;
38865;SDS011;62686;48.984;8.394;2024-02-16T03:23:31;6.97;;;4.00;;
38865;SDS011;62686;48.984;8.394;2024-02-16T03:26:00;8.77;;;4.13;;
38865;SDS011;62686;48.984;8.394;2024-02-16T03:28:30;6.32;;;4.10;;
38865;SDS011;62686;48.984;8.394;2024-02-16T03:30:58;8.30;;;3.58;;
38865;SDS011;62686;48.984;8.394;2024-02-16T03:33:27;6.07;;;4.70;;
38865;SDS011;62686;48.984;8.394;2024-02-16T03:35:57;5.90;;;4.05;;
38865;SDS011;62686;48.984;8.394;2024-02-16T03:38:26;6.00;;;3.78;;
38865;SDS011;62686;48.984;8.394;2024-02-16T03:40:55;6.30;;;3.72;;
38865;SDS011;62686;48.984;8.394;2024-02-16T03:43:23;6.07;;;3.40;;
38865;SDS011;62686;48.984;8.394;2024-02-16T03:45:52;7.97;;;3.77;;
38865;SDS011;62686;48.984;8.394;2024-02-16T04:48:01;8.75;;;4.10;;
38865;SDS011;62686;48.984;8.394;2024-02-16T04:55:37;9.10;;;3.97;;
38865;SDS011;62686;48.984;8.394;2024-02-16T04:58:05;7.13;;;3.90;;
38865;SDS011;62686;48.984;8.394;2024-02-16T05:00:36;7.47;;;3.67;;
38865;SDS011;62686;48.984;8.394;2024-02-16T05:03:06;6.10;;;3.78;;
38865;SDS011;62686;48.984;8.394;2024-02-16T05:05:35;8.40;;;4.53;;
38865;SDS011;62686;48.984;8.394;2024-02-16T05:08:05;5.80;;;4.05;;
38865;SDS011;62686;48.984;8.394;2024-02-16T05:10:33;7.87;;;4.33;;
38865;SDS011;62686;48.984;8.394;2024-02-16T05:13:02;6.35;;;4.00;;
38865;SDS011;62686;48.984;8.394;2024-02-16T05:15:31;7.50;;;4.07;;
38865;SDS011;62686;48.984;8.394;2024-02-16T05:20:36;7.93;;;4.30;;
38865;SDS011;62686;48.984;8.394;2024-02-16T05:23:05;5.17;;;3.60;;
38865;SDS011;62686;48.984;8.394;2024-02-16T05:25:33;7.82;;;4.80;;
38865;SDS011;62686;48.984;8.394;2024-02-16T05:28:02;13.15;;;5.10;;
38865;SDS011;62686;48.984;8.394;2024-02-16T05:30:31;6.90;;;4.10;;
38865;SDS011;62686;48.984;8.394;2024-02-16T05:33:00;9.07;;;4.63;;
38865;SDS011;62686;48.984;8.394;2024-02-16T05:35:29;8.50;;;4.57;;
38865;SDS011;62686;48.984;8.394;2024-02-16T05:38:01;7.47;;;4.97;;
38865;SDS011;62686;48.984;8.394;2024-02-16T05:40:33;9.05;;;5.03;;
38865;SDS011;62686;48.984;8.394;2024-02-16T05:43:11;6.97;;;4.47;;
38865;SDS011;62686;48.984;8.394;2024-02-16T05:45:40;9.93;;;4.88;;
38865;SDS011;62686;48.984;8.394;2024-02-16T05:48:10;8.57;;;4.67;;
38865;SDS011;62686;48.984;8.394;2024-02-16T05:50:39;7.32;;;4.80;;
38865;SDS011;62686;48.984;8.394;2024-02-16T05:53:13;6.93;;;4.18;;
38865;SDS011;62686;48.984;8.394;2024-02-16T06:04:10;7.65;;;4.55;;
38865;SDS011;62686;48.984;8.394;2024-02-16T06:09:25;11.50;;;4.35;;
38865;SDS011;62686;48.984;8.394;2024-02-16T06:12:00;6.63;;;4.18;;
38865;SDS011;62686;48.984;8.394;2024-02-16T06:14:31;8.57;;;4.30;;
38865;SDS011;62686;48.984;8.394;2024-02-16T06:17:00;7.63;;;4.88;;
38865;SDS011;62686;48.984;8.394;2024-02-16T06:19:28;6.13;;;3.80;;
38865;SDS011;62686;48.984;8.394;2024-02-16T06:21:57;6.45;;;3.88;;
38865;SDS011;62686;48.984;8.394;2024-02-16T06:24:27;5.45;;;3.92;;
38865;SDS011;62686;48.984;8.394;2024-02-16T06:26:56;6.03;;;4.47;;
38865;SDS011;62686;48.984;8.394;2024-02-16T06:29:24;7.63;;;3.97;;
38865;SDS011;62686;48.984;8.394;2024-02-16T06:31:53;6.93;;;4.30;;
38865;SDS011;62686;48.984;8.394;2024-02-16T06:34:21;8.40;;;4.80;;
38865;SDS011;62686;48.984;8.394;2024-02-16T06:36:50;8.50;;;4.20;;
38865;SDS011;62686;48.984;8.394;2024-02-16T06:39:18;9.67;;;3.90;;
38865;SDS011;62686;48.984;8.394;2024-02-16T06:41:48;7.65;;;4.45;;
38865;SDS011;62686;48.984;8.394;2024-02-16T06:44:18;7.35;;;4.40;;
38865;SDS011;62686;48.984;8.394;2024-02-16T06:46:47;6.72;;;4.28;;
38865;SDS011;62686;48.984;8.394;2024-02-16T06:49:15;6.80;;;4.82;;
38865;SDS011;62686;48.984;8.394;2024-02-16T06:51:44;11.07;;;4.30;;
38865;SDS011;62686;48.984;8.394;2024-02-16T06:54:12;6.57;;;4.07;;
38865;SDS011;62686;48.984;8.394;2024-02-16T06:56:41;6.38;;;4.30;;
38865;SDS011;62686;48.984;8.394;2024-02-16T06:59:12;6.68;;;4.60;;
38865;SDS011;62686;48.984;8.394;2024-02-16T07:01:40;5.72;;;4.38;;
38865;SDS011;62686;48.984;8.394;2024-02-16T07:04:09;7.47;;;4.13;;
38865;SDS011;62686;48.984;8.394;2024-02-16T07:06:37;6.88;;;4.22;;
38865;SDS011;62686;48.984;8.394;2024-02-16T07:09:06;7.10;;;4.18;;
38865;SDS011;62686;48.984;8.394;2024-02-16T07:11:34;5.88;;;4.30;;
38865;SDS011;62686;48.984;8.394;2024-02-16T07:14:04;7.18;;;4.55;;
38865;SDS011;62686;48.984;8.394;2024-02-16T07:16:34;9.60;;;4.73;;
38865;SDS011;62686;48.984;8.394;2024-02-16T07:19:05;8.30;;;4.90;;
38865;SDS011;62686;48.984;8.394;2024-02-16T07:21:33;6.45;;;4.97;;
38865;SDS011;62686;48.984;8.394;2024-02-16T07:24:02;9.57;;;4.57;;
38865;SDS011;62686;48.984;8.394;2024-02-16T07:26:32;8.73;;;4.28;;
38865;SDS011;62686;48.984;8.394;2024-02-16T07:29:02;7.77;;;5.30;;
38865;SDS011;62686;48.984;8.394;2024-02-16T07:31:32;9.77;;;5.40;;
38865;SDS011;62686;48.984;8.394;2024-02-16T07:34:02;8.63;;;4.85;;
38865;SDS011;62686;48.984;8.394;2024-02-16T07:36:31;9.25;;;5.50;;
38865;SDS011;62686;48.984;8.394;2024-02-16T07:39:03;9.10;;;5.40;;
38865;SDS011;62686;48.984;8.394;2024-02-16T07:41:32;7.80;;;5.23;;
38865;SDS011;62686;48.984;8.394;2024-02-16T07:44:00;7.88;;;4.85;;
38865;SDS011;62686;48.984;8.394;2024-02-16T07:46:29;7.30;;;5.00;;
38865;SDS011;62686;48.984;8.394;2024-02-16T07:48:59;7.03;;;4.75;;
38865;SDS011;62686;48.984;8.394;2024-02-16T07:51:29;8.40;;;4.75;;
38865;SDS011;62686;48.984;8.394;2024-02-16T07:53:57;8.20;;;4.67;;
38865;SDS011;62686;48.984;8.394;2024-02-16T07:56:26;7.93;;;4.07;;
38865;SDS011;62686;48.984;8.394;2024-02-16T07:58:55;6.68;;;4.22;;
38865;SDS011;62686;48.984;8.394;2024-02-16T08:01:23;5.82;;;3.53;;
38865;SDS011;62686;48.984;8.394;2024-02-16T08:03:52;4.53;;;3.90;;
38865;SDS011;62686;48.984;8.394;2024-02-16T08:06:24;6.80;;;4.73;;
38865;SDS011;62686;48.984;8.394;2024-02-16T08:08:54;5.40;;;3.90;;
38865;SDS011;62686;48.984;8.394;2024-02-16T08:11:23;4.70;;;4.25;;
38865;SDS011;62686;48.984;8.394;2024-02-16T08:16:34;9.77;;;4.47;;
38865;SDS011;62686;48.984;8.394;2024-02-16T08:19:03;8.03;;;4.43;;
38865;SDS011;62686;48.984;8.394;2024-02-16T08:21:32;9.18;;;4.80;;
38865;SDS011;62686;48.984;8.394;2024-02-16T08:24:01;7.47;;;5.03;;
38865;SDS011;62686;48.984;8.394;2024-02-16T08:26:30;6.78;;;4.25;;
38865;SDS011;62686;48.984;8.394;2024-02-16T08:29:00;6.35;;;4.50;;
38865;SDS011;62686;48.984;8.394;2024-02-16T08:31:28;7.47;;;4.70;;
38865;SDS011;62686;48.984;8.394;2024-02-16T08:33:57;7.38;;;4.82;;
38865;SDS011;62686;48.984;8.394;2024-02-16T08:36:26;7.68;;;4.75;;
38865;SDS011;62686;48.984;8.394;2024-02-16T08:38:56;12.27;;;5.35;;
38865;SDS011;62686;48.984;8.394;2024-02-16T08:41:26;6.78;;;4.85;;
38865;SDS011;62686;48.984;8.394;2024-02-16T08:43:55;9.37;;;4.37;;
38865;SDS011;62686;48.984;8.394;2024-02-16T08:46:25;6.68;;;4.07;;
38865;SDS011;62686;48.984;8.394;2024-02-16T08:48:56;7.43;;;4.20;;
38865;SDS011;62686;48.984;8.394;2024-02-16T08:51:26;6.78;;;4.57;;
38865;SDS011;62686;48.984;8.394;2024-02-16T08:53:55;7.75;;;4.55;;
38865;SDS011;62686;48.984;8.394;2024-02-16T08:56:24;8.07;;;4.20;;
38865;SDS011;62686;48.984;8.394;2024-02-16T08:58:54;6.32;;;4.22;;
38865;SDS011;62686;48.984;8.394;2024-02-16T09:01:29;8.38;;;5.15;;
38865;SDS011;62686;48.984;8.394;2024-02-16T09:03:59;7.50;;;4.85;;
38865;SDS011;62686;48.984;8.394;2024-02-16T09:06:28;10.25;;;5.03;;
38865;SDS011;62686;48.984;8.394;2024-02-16T09:08:58;9.40;;;4.97;;
38865;SDS011;62686;48.984;8.394;2024-02-16T09:11:28;8.18;;;5.28;;
38865;SDS011;62686;48.984;8.394;2024-02-16T09:13:56;9.23;;;4.80;;
38865;SDS011;62686;48.984;8.394;2024-02-16T09:16:25;8.02;;;5.45;;
38865;SDS011;62686;48.984;8.394;2024-02-16T09:18:53;6.53;;;5.10;;
38865;SDS011;62686;48.984;8.394;2024-02-16T09:21:22;7.43;;;4.30;;
38865;SDS011;62686;48.984;8.394;2024-02-16T09:23:53;6.47;;;5.03;;
38865;SDS011;62686;48.984;8.394;2024-02-16T09:26:24;6.63;;;4.60;;
38865;SDS011;62686;48.984;8.394;2024-02-16T09:28:57;7.93;;;5.00;;
38865;SDS011;62686;48.984;8.394;2024-02-16T09:31:26;9.25;;;4.88;;
38865;SDS011;62686;48.984;8.394;2024-02-16T09:36:23;7.18;;;5.13;;
38865;SDS011;62686;48.984;8.394;2024-02-16T09:38:51;8.73;;;5.25;;
38865;SDS011;62686;48.984;8.394;2024-02-16T09:41:20;6.78;;;4.78;;
38865;SDS011;62686;48.984;8.394;2024-02-16T09:43:50;7.30;;;4.78;;
38865;SDS011;62686;48.984;8.394;2024-02-16T09:46:22;5.97;;;4.13;;
38865;SDS011;62686;48.984;8.394;2024-02-16T09:48:51;6.43;;;4.75;;
38865;SDS011;62686;48.984;8.394;2024-02-16T09:51:22;6.60;;;4.57;;
38865;SDS011;62686;48.984;8.394;2024-02-16T09:53:51;8.80;;;5.45;;
38865;SDS011;62686;48.984;8.394;2024-02-16T09:59:04;8.57;;;4.23;;
38865;SDS011;62686;48.984;8.394;2024-02-16T10:01:36;5.50;;;4.45;;
38865;SDS011;62686;48.984;8.394;2024-02-16T10:04:07;6.72;;;4.20;;
38865;SDS011;62686;48.984;8.394;2024-02-16T10:36:19;5.35;;;3.70;;
38865;SDS011;62686;48.984;8.394;2024-02-16T10:44:48;6.28;;;3.58;;
38865;SDS011;62686;48.984;8.394;2024-02-16T10:58:09;4.53;;;3.30;;
38865;SDS011;62686;48.984;8.394;2024-02-16T11:28:43;5.00;;;3.08;;
38865;SDS011;62686;48.984;8.394;2024-02-16T11:53:29;6.43;;;3.33;;
38865;SDS011;62686;48.984;8.394;2024-02-16T12:17:22;4.25;;;3.08;;
38865;SDS011;62686;48.984;8.394;2024-02-16T12:22:46;4.88;;;2.72;;
38865;SDS011;62686;48.984;8.394;2024-02-16T12:31:19;5.47;;;3.28;;
38865;SDS011;62686;48.984;8.394;2024-02-16T13:14:20;4.17;;;2.30;;
38865;SDS011;62686;48.984;8.394;2024-02-16T13:16:49;5.50;;;2.45;;
38865;SDS011;62686;48.984;8.394;2024-02-16T13:27:23;5.37;;;2.60;;
38865;SDS011;62686;48.984;8.394;2024-02-16T13:29:54;4.75;;;2.20;;
38865;SDS011;62686;48.984;8.394;2024-02-16T13:32:22;4.55;;;2.63;;
38865;SDS011;62686;48.984;8.394;2024-02-16T13:34:51;3.63;;;2.38;;
38865;SDS011;62686;48.984;8.394;2024-02-16T13:37:20;3.95;;;2.15;;
38865;SDS011;62686;48.984;8.394;2024-02-16T13:39:48;6.47;;;2.10;;
38865;SDS011;62686;48.984;8.394;2024-02-16T13:45:00;2.58;;;2.08;;
38865;SDS011;62686;48.984;8.394;2024-02-16T13:56:30;2.80;;;1.70;;
38865;SDS011;62686;48.984;8.394;2024-02-16T13:59:02;2.22;;;1.88;;
38865;SDS011;62686;48.984;8.394;2024-02-16T14:01:31;3.88;;;1.90;;
38865;SDS011;62686;48.984;8.394;2024-02-16T14:04:01;3.80;;;1.90;;
38865;SDS011;62686;48.984;8.394;2024-02-16T14:06:30;3.03;;;2.23;;
38865;SDS011;62686;48.984;8.394;2024-02-16T14:08:59;2.83;;;2.20;;
38865;SDS011;62686;48.984;8.394;2024-02-16T14:11:28;3.53;;;1.95;;
38865;SDS011;62686;48.984;8.394;2024-02-16T14:13:56;4.05;;;2.10;;
38865;SDS011;62686;48.984;8.394;2024-02-16T14:16:24;4.85;;;2.13;;
38865;SDS011;62686;48.984;8.394;2024-02-16T14:18:54;2.30;;;1.83;;
38865;SDS011;62686;48.984;8.394;2024-02-16T14:21:23;3.50;;;2.30;;
38865;SDS011;62686;48.984;8.394;2024-02-16T14:23:52;4.78;;;2.47;;
38865;SDS011;62686;48.984;8.394;2024-02-16T14:26:20;3.05;;;2.28;;
38865;SDS011;62686;48.984;8.394;2024-02-16T14:28:50;5.47;;;2.17;;
38865;SDS011;62686;48.984;8.394;2024-02-16T14:31:18;5.43;;;2.33;;
38865;SDS011;62686;48.984;8.394;2024-02-16T14:33:47;3.05;;;1.75;;
38865;SDS011;62686;48.984;8.394;2024-02-16T14:39:00;2.95;;;1.90;;
38865;SDS011;62686;48.984;8.394;2024-02-16T14:41:29;4.38;;;2.30;;
38865;SDS011;62686;48.984;8.394;2024-02-16T14:43:57;3.77;;;2.10;;
38865;SDS011;62686;48.984;8.394;2024-02-16T14:46:27;3.15;;;2.20;;
38865;SDS011;62686;48.984;8.394;2024-02-16T14:48:55;4.03;;;2.65;;
38865;SDS011;62686;48.984;8.394;2024-02-16T14:51:24;5.18;;;1.92;;
38865;SDS011;62686;48.984;8.394;2024-02-16T14:53:52;2.35;;;1.85;;
38865;SDS011;62686;48.984;8.394;2024-02-16T15:01:40;2.80;;;1.90;;
38865;SDS011;62686;48.984;8.394;2024-02-16T15:04:10;2.20;;;2.00;;
38865;SDS011;62686;48.984;8.394;2024-02-16T15:09:14;3.03;;;2.20;;
38865;SDS011;62686;48.984;8.394;2024-02-16T15:46:52;2.45;;;1.95;;
38865;SDS011;62686;48.984;8.394;2024-02-16T15:55:00;4.40;;;2.83;;
38865;SDS011;62686;48.984;8.394;2024-02-16T16:27:19;3.25;;;2.47;;
38865;SDS011;62686;48.984;8.394;2024-02-16T16:29:48;3.78;;;2.53;;
38865;SDS011;62686;48.984;8.394;2024-02-16T16:37:35;5.50;;;2.55;;
38865;SDS011;62686;48.984;8.394;2024-02-16T16:40:04;6.47;;;2.55;;
38865;SDS011;62686;48.984;8.394;2024-02-16T16:42:35;3.95;;;2.47;;
38865;SDS011;62686;48.984;8.394;2024-02-16T16:45:04;4.07;;;2.20;;
38865;SDS011;62686;48.984;8.394;2024-02-16T16:47:33;4.20;;;2.47;;
38865;SDS011;62686;48.984;8.394;2024-02-16T16:50:03;2.97;;;2.58;;
38865;SDS011;62686;48.984;8.394;2024-02-16T16:52:38;5.82;;;2.90;;
38865;SDS011;62686;48.984;8.394;2024-02-16T16:55:09;3.22;;;2.72;;
38865;SDS011;62686;48.984;8.394;2024-02-16T16:57:38;4.33;;;3.10;;
38865;SDS011;62686;48.984;8.394;2024-02-16T17:00:08;4.15;;;2.35;;
38865;SDS011;62686;48.984;8.394;2024-02-16T17:02:40;6.07;;;2.80;;
38865;SDS011;62686;48.984;8.394;2024-02-16T17:05:09;4.90;;;2.90;;
38865;SDS011;62686;48.984;8.394;2024-02-16T17:07:44;4.28;;;3.00;;
38865;SDS011;62686;48.984;8.394;2024-02-16T17:10:14;5.33;;;3.47;;
38865;SDS011;62686;48.984;8.394;2024-02-16T17:12:44;5.70;;;3.78;;
38865;SDS011;62686;48.984;8.394;2024-02-16T17:15:15;6.55;;;4.03;;
38865;SDS011;62686;48.984;8.394;2024-02-16T17:17:47;9.52;;;4.15;;
38865;SDS011;62686;48.984;8.394;2024-02-16T17:20:20;5.57;;;4.18;;
38865;SDS011;62686;48.984;8.394;2024-02-16T17:22:52;7.63;;;4.40;;
38865;SDS011;62686;48.984;8.394;2024-02-16T17:25:22;7.13;;;4.38;;
38865;SDS011;62686;48.984;8.394;2024-02-16T17:27:52;7.25;;;4.55;;
38865;SDS011;62686;48.984;8.394;2024-02-16T17:30:24;5.95;;;4.43;;
38865;SDS011;62686;48.984;8.394;2024-02-16T17:32:52;7.90;;;5.60;;
38865;SDS011;62686;48.984;8.394;2024-02-16T17:35:21;6.60;;;5.03;;
38865;SDS011;62686;48.984;8.394;2024-02-16T17:37:50;9.30;;;5.15;;
38865;SDS011;62686;48.984;8.394;2024-02-16T17:40:22;8.10;;;4.80;;
38865;SDS011;62686;48.984;8.394;2024-02-16T17:42:50;11.50;;;5.50;;
38865;SDS011;62686;48.984;8.394;2024-02-16T17:45:20;10.63;;;5.00;;
38865;SDS011;62686;48.984;8.394;2024-02-16T17:47:48;7.73;;;4.90;;
38865;SDS011;62686;48.984;8.394;2024-02-16T17:50:17;10.05;;;5.32;;
38865;SDS011;62686;48.984;8.394;2024-02-16T17:52:45;10.75;;;6.88;;
38865;SDS011;62686;48.984;8.394;2024-02-16T17:55:15;9.90;;;5.95;;
38865;SDS011;62686;48.984;8.394;2024-02-16T17:57:44;9.38;;;5.50;;
38865;SDS011;62686;48.984;8.394;2024-02-16T18:00:12;12.87;;;6.93;;
38865;SDS011;62686;48.984;8.394;2024-02-16T18:02:42;11.73;;;6.82;;
38865;SDS011;62686;48.984;8.394;2024-02-16T18:05:11;11.07;;;6.95;;
38865;SDS011;62686;48.984;8.394;2024-02-16T18:07:40;10.32;;;6.70;;
38865;SDS011;62686;48.984;8.394;2024-02-16T18:10:08;10.45;;;5.70;;
38865;SDS011;62686;48.984;8.394;2024-02-16T18:12:39;10.10;;;6.43;;
38865;SDS011;62686;48.984;8.394;2024-02-16T18:15:08;11.00;;;6.10;;
38865;SDS011;62686;48.984;8.394;2024-02-16T18:17:39;13.20;;;7.05;;
38865;SDS011;62686;48.984;8.394;2024-02-16T18:20:09;15.73;;;7.38;;
38865;SDS011;62686;48.984;8.394;2024-02-16T18:22:38;11.30;;;6.72;;
38865;SDS011;62686;48.984;8.394;2024-02-16T18:25:07;11.10;;;7.30;;
38865;SDS011;62686;48.984;8.394;2024-02-16T18:27:36;11.75;;;7.15;;
38865;SDS011;62686;48.984;8.394;2024-02-16T18:30:07;16.75;;;8.75;;
38865;SDS011;62686;48.984;8.394;2024-02-16T18:32:37;14.05;;;7.80;;
38865;SDS011;62686;48.984;8.394;2024-02-16T18:35:06;15.38;;;9.60;;
38865;SDS011;62686;48.984;8.394;2024-02-16T18:37:35;12.93;;;8.23;;
38865;SDS011;62686;48.984;8.394;2024-02-16T18:40:04;16.88;;;8.80;;
38865;SDS011;62686;48.984;8.394;2024-02-16T18:42:36;16.63;;;8.75;;
38865;SDS011;62686;48.984;8.394;2024-02-16T18:45:06;14.52;;;8.27;;
38865;SDS011;62686;48.984;8.394;2024-02-16T18:47:36;14.05;;;8.70;;
38865;SDS011;62686;48.984;8.394;2024-02-16T18:50:05;13.53;;;8.10;;
38865;SDS011;62686;48.984;8.394;2024-02-16T18:52:36;13.05;;;8.23;;
38865;SDS011;62686;48.984;8.394;2024-02-16T18:55:05;14.95;;;8.80;;
38865;SDS011;62686;48.984;8.394;2024-02-16T18:57:34;15.88;;;8.98;;
38865;SDS011;62686;48.984;8.394;2024-02-16T19:00:03;16.15;;;9.45;;
38865;SDS011;62686;48.984;8.394;2024-02-16T19:02:35;16.30;;;9.13;;
38865;SDS011;62686;48.984;8.394;2024-02-16T19:05:08;15.32;;;8.57;;
38865;SDS011;62686;48.984;8.394;2024-02-16T19:07:37;14.52;;;9.07;;
38865;SDS011;62686;48.984;8.394;2024-02-16T19:10:06;18.50;;;10.57;;
38865;SDS011;62686;48.984;8.394;2024-02-16T19:12:35;22.38;;;11.20;;
38865;SDS011;62686;48.984;8.394;2024-02-16T19:15:03;16.73;;;9.87;;
38865;SDS011;62686;48.984;8.394;2024-02-16T19:17:36;19.17;;;10.85;;
38865;SDS011;62686;48.984;8.394;2024-02-16T19:20:04;18.75;;;10.93;;
38865;SDS011;62686;48.984;8.394;2024-02-16T19:22:34;21.50;;;10.80;;
38865;SDS011;62686;48.984;8.394;2024-02-16T19:25:03;19.85;;;10.90;;
38865;SDS011;62686;48.984;8.394;2024-02-16T19:27:33;17.77;;;10.53;;
38865;SDS011;62686;48.984;8.394;2024-02-16T19:30:01;17.75;;;10.82;;
38865;SDS011;62686;48.984;8.394;2024-02-16T19:32:34;18.20;;;10.52;;
38865;SDS011;62686;48.984;8.394;2024-02-16T19:35:02;22.05;;;10.70;;
38865;SDS011;62686;48.984;8.394;2024-02-16T19:37:33;19.67;;;11.18;;
38865;SDS011;62686;48.984;8.394;2024-02-16T19:40:02;19.23;;;9.83;;
38865;SDS011;62686;48.984;8.394;2024-02-16T19:42:31;15.98;;;9.90;;
38865;SDS011;62686;48.984;8.394;2024-02-16T19:45:00;18.33;;;9.93;;
38865;SDS011;62686;48.984;8.394;2024-02-16T19:47:30;17.60;;;9.73;;
38865;SDS011;62686;48.984;8.394;2024-02-16T19:50:00;18.48;;;10.02;;
38865;SDS011;62686;48.984;8.394;2024-02-16T19:52:30;19.60;;;10.13;;
38865;SDS011;62686;48.984;8.394;2024-02-16T19:54:59;21.17;;;11.02;;
38865;SDS011;62686;48.984;8.394;2024-02-16T19:57:29;19.67;;;10.25;;
38865;SDS011;62686;48.984;8.394;2024-02-16T19:59:58;17.10;;;9.10;;
38865;SDS011;62686;48.984;8.394;2024-02-16T20:02:26;17.40;;;9.50;;
38865;SDS011;62686;48.984;8.394;2024-02-16T20:04:55;18.07;;;9.67;;
38865;SDS011;62686;48.984;8.394;2024-02-16T20:07:25;16.90;;;9.07;;
38865;SDS011;62686;48.984;8.394;2024-02-16T20:09:54;17.38;;;8.57;;
38865;SDS011;62686;48.984;8.394;2024-02-16T20:12:22;16.60;;;8.68;;
38865;SDS011;62686;48.984;8.394;2024-02-16T20:14:51;16.23;;;8.82;;
38865;SDS011;62686;48.984;8.394;2024-02-16T20:17:20;16.97;;;9.10;;
38865;SDS011;62686;48.984;8.394;2024-02-16T20:19:48;14.93;;;8.07;;
38865;SDS011;62686;48.984;8.394;2024-02-16T20:22:17;15.43;;;7.93;;
38865;SDS011;62686;48.984;8.394;2024-02-16T20:24:46;15.57;;;8.80;;
38865;SDS011;62686;48.984;8.394;2024-02-16T20:27:15;12.75;;;7.72;;
38865;SDS011;62686;48.984;8.394;2024-02-16T20:29:45;17.40;;;8.17;;
38865;SDS011;62686;48.984;8.394;2024-02-16T20:32:14;14.02;;;7.05;;
38865;SDS011;62686;48.984;8.394;2024-02-16T20:34:42;15.45;;;7.57;;
38865;SDS011;62686;48.984;8.394;2024-02-16T20:37:11;22.08;;;10.30;;
38865;SDS011;62686;48.984;8.394;2024-02-16T20:42:23;22.50;;;9.57;;
38865;SDS011;62686;48.984;8.394;2024-02-16T20:44:52;24.00;;;11.20;;
38865;SDS011;62686;48.984;8.394;2024-02-16T20:47:20;15.52;;;8.38;;
38865;SDS011;62686;48.984;8.394;2024-02-16T20:55:13;14.13;;;8.07;;
38865;SDS011;62686;48.984;8.394;2024-02-16T20:57:43;16.50;;;8.75;;
38865;SDS011;62686;48.984;8.394;2024-02-16T21:00:14;17.30;;;8.68;;
38865;SDS011;62686;48.984;8.394;2024-02-16T21:02:44;19.75;;;8.73;;
38865;SDS011;62686;48.984;8.394;2024-02-16T21:05:12;19.67;;;8.60;;
38865;SDS011;62686;48.984;8.394;2024-02-16T21:07:40;13.67;;;7.93;;
38865;SDS011;62686;48.984;8.394;2024-02-16T21:10:09;16.48;;;8.32;;
38865;SDS011;62686;48.984;8.394;2024-02-16T21:12:37;14.32;;;8.43;;
38865;SDS011;62686;48.984;8.394;2024-02-16T21:15:07;14.93;;;8.45;;
38865;SDS011;62686;48.984;8.394;2024-02-16T21:17:37;15.45;;;8.50;;
38865;SDS011;62686;48.984;8.394;2024-02-16T21:20:06;18.03;;;8.07;;
38865;SDS011;62686;48.984;8.394;2024-02-16T21:22:36;14.18;;;8.02;;
38865;SDS011;62686;48.984;8.394;2024-02-16T21:25:04;15.68;;;8.32;;
38865;SDS011;62686;48.984;8.394;2024-02-16T21:27:35;14.90;;;7.45;;
38865;SDS011;62686;48.984;8.394;2024-02-16T21:30:04;13.38;;;7.90;;
38865;SDS011;62686;48.984;8.394;2024-02-16T21:32:35;13.57;;;7.37;;
38865;SDS011;62686;48.984;8.394;2024-02-16T21:35:03;13.55;;;7.82;;